sensor_id;sensor_type;location;lat;lon;timestamp;pressure;altitude;pressure_sealevel;temperature;humidity
72587;BME280;60621;49.576;11.024;2023-04-23T00:00:20;97649.91;;;15.94;72.62
72587;BME280;60621;49.576;11.024;2023-04-23T00:01:26;97654.53;;;15.90;72.76
72587;BME280;60621;49.576;11.024;2023-04-23T00:02:29;97654.38;;;15.77;72.89
72587;BME280;60621;49.576;11.024;2023-04-23T00:03:35;97656.97;;;15.80;72.96
72587;BME280;60621;49.576;11.024;2023-04-23T00:04:38;97657.75;;;15.81;72.45
72587;BME280;60621;49.576;11.024;2023-04-23T00:05:40;97663.84;;;15.78;72.25
72587;BME280;60621;49.576;11.024;2023-04-23T00:06:45;97657.59;;;15.65;72.57
72587;BME280;60621;49.576;11.024;2023-04-23T00:07:48;97669.00;;;15.61;72.75
72587;BME280;60621;49.576;11.024;2023-04-23T00:08:52;97676.97;;;15.61;72.60
72587;BME280;60621;49.576;11.024;2023-04-23T00:09:54;97673.19;;;15.62;72.52
72587;BME280;60621;49.576;11.024;2023-04-23T00:10:58;97660.25;;;15.61;72.09
72587;BME280;60621;49.576;11.024;2023-04-23T00:12:00;97660.72;;;15.56;72.19
72587;BME280;60621;49.576;11.024;2023-04-23T00:13:02;97675.59;;;15.53;71.98
72587;BME280;60621;49.576;11.024;2023-04-23T00:14:04;97667.19;;;15.55;72.09
72587;BME280;60621;49.576;11.024;2023-04-23T00:15:06;97657.03;;;15.50;71.68
72587;BME280;60621;49.576;11.024;2023-04-23T00:16:09;97655.22;;;15.43;71.13
72587;BME280;60621;49.576;11.024;2023-04-23T00:17:11;97659.38;;;15.44;70.71
72587;BME280;60621;49.576;11.024;2023-04-23T00:18:13;97656.59;;;15.51;70.92
72587;BME280;60621;49.576;11.024;2023-04-23T00:19:17;97663.38;;;15.56;70.44
72587;BME280;60621;49.576;11.024;2023-04-23T00:20:19;97661.47;;;15.56;70.82
72587;BME280;60621;49.576;11.024;2023-04-23T00:21:20;97666.00;;;15.59;70.97
72587;BME280;60621;49.576;11.024;2023-04-23T00:22:22;97654.19;;;15.60;70.85
72587;BME280;60621;49.576;11.024;2023-04-23T00:23:24;97652.28;;;15.61;70.61
72587;BME280;60621;49.576;11.024;2023-04-23T00:24:25;97653.03;;;15.61;70.41
72587;BME280;60621;49.576;11.024;2023-04-23T00:25:27;97661.78;;;15.62;70.45
72587;BME280;60621;49.576;11.024;2023-04-23T00:26:28;97655.31;;;15.63;70.50
72587;BME280;60621;49.576;11.024;2023-04-23T00:27:30;97652.28;;;15.65;70.55
72587;BME280;60621;49.576;11.024;2023-04-23T00:28:31;97653.03;;;15.65;70.27
72587;BME280;60621;49.576;11.024;2023-04-23T00:29:33;97647.38;;;15.59;70.52
72587;BME280;60621;49.576;11.024;2023-04-23T00:30:34;97645.13;;;15.58;70.79
72587;BME280;60621;49.576;11.024;2023-04-23T00:31:36;97642.53;;;15.54;70.88
72587;BME280;60621;49.576;11.024;2023-04-23T00:32:37;97639.50;;;15.52;70.69
72587;BME280;60621;49.576;11.024;2023-04-23T00:33:39;97640.28;;;15.53;70.87
72587;BME280;60621;49.576;11.024;2023-04-23T00:34:41;97639.13;;;15.54;70.74
72587;BME280;60621;49.576;11.024;2023-04-23T00:35:43;97647.19;;;15.47;70.80
72587;BME280;60621;49.576;11.024;2023-04-23T00:36:45;97643.47;;;15.41;71.45
72587;BME280;60621;49.576;11.024;2023-04-23T00:37:46;97648.00;;;15.44;71.15
72587;BME280;60621;49.576;11.024;2023-04-23T00:38:48;97647.59;;;15.45;71.32
72587;BME280;60621;49.576;11.024;2023-04-23T00:39:50;97643.44;;;15.44;71.61
72587;BME280;60621;49.576;11.024;2023-04-23T00:40:51;97648.50;;;15.35;71.72
72587;BME280;60621;49.576;11.024;2023-04-23T00:41:54;97652.69;;;15.32;71.22
72587;BME280;60621;49.576;11.024;2023-04-23T00:42:56;97651.59;;;15.30;71.05
72587;BME280;60621;49.576;11.024;2023-04-23T00:43:59;97650.44;;;15.31;71.39
72587;BME280;60621;49.576;11.024;2023-04-23T00:45:00;97648.50;;;15.35;70.99
72587;BME280;60621;49.576;11.024;2023-04-23T00:46:02;97653.09;;;15.31;70.95
72587;BME280;60621;49.576;11.024;2023-04-23T00:47:05;97655.06;;;15.27;71.87
72587;BME280;60621;49.576;11.024;2023-04-23T00:48:07;97655.06;;;15.27;71.29
72587;BME280;60621;49.576;11.024;2023-04-23T00:49:10;97654.47;;;15.16;71.50
72587;BME280;60621;49.576;11.024;2023-04-23T00:50:11;97659.72;;;15.19;71.22
72587;BME280;60621;49.576;11.024;2023-04-23T00:51:15;97657.41;;;15.21;71.33
72587;BME280;60621;49.576;11.024;2023-04-23T00:52:16;97656.25;;;15.22;70.94
72587;BME280;60621;49.576;11.024;2023-04-23T00:53:18;97654.81;;;15.18;71.12
72587;BME280;60621;49.576;11.024;2023-04-23T00:54:20;97657.47;;;15.18;71.69
72587;BME280;60621;49.576;11.024;2023-04-23T00:55:22;97652.88;;;15.18;71.38
72587;BME280;60621;49.576;11.024;2023-04-23T00:56:25;97651.75;;;15.19;71.05
72587;BME280;60621;49.576;11.024;2023-04-23T00:57:27;97650.19;;;15.22;70.55
72587;BME280;60621;49.576;11.024;2023-04-23T00:58:29;97652.84;;;15.22;70.27
72587;BME280;60621;49.576;11.024;2023-04-23T00:59:31;97662.72;;;15.21;70.27
72587;BME280;60621;49.576;11.024;2023-04-23T01:00:37;97654.00;;;15.21;70.20
72587;BME280;60621;49.576;11.024;2023-04-23T01:01:44;97658.16;;;15.22;70.73
72587;BME280;60621;49.576;11.024;2023-04-23T01:02:47;97654.75;;;15.21;71.02
72587;BME280;60621;49.576;11.024;2023-04-23T01:03:51;97658.91;;;15.22;70.92
72587;BME280;60621;49.576;11.024;2023-04-23T01:04:54;97655.50;;;15.22;71.01
72587;BME280;60621;49.576;11.024;2023-04-23T01:05:57;97652.09;;;15.21;70.58
72587;BME280;60621;49.576;11.024;2023-04-23T01:06:59;97654.41;;;15.19;71.35
72587;BME280;60621;49.576;11.024;2023-04-23T01:08:01;97653.63;;;15.19;71.42
72587;BME280;60621;49.576;11.024;2023-04-23T01:09:02;97647.56;;;15.18;70.69
72587;BME280;60621;49.576;11.024;2023-04-23T01:10:05;97649.09;;;15.19;70.42
72587;BME280;60621;49.576;11.024;2023-04-23T01:11:06;97649.47;;;15.18;70.10
72587;BME280;60621;49.576;11.024;2023-04-23T01:12:09;97654.06;;;15.17;69.38
72587;BME280;60621;49.576;11.024;2023-04-23T01:13:12;97645.31;;;15.17;69.28
72587;BME280;60621;49.576;11.024;2023-04-23T01:14:14;97649.16;;;15.16;69.34
72587;BME280;60621;49.576;11.024;2023-04-23T01:15:15;97643.88;;;15.12;69.36
72587;BME280;60621;49.576;11.024;2023-04-23T01:16:17;97640.47;;;15.11;69.95
72587;BME280;60621;49.576;11.024;2023-04-23T01:17:18;97645.78;;;15.11;69.59
72587;BME280;60621;49.576;11.024;2023-04-23T01:18:21;97638.59;;;15.08;69.20
72587;BME280;60621;49.576;11.024;2023-04-23T01:19:23;97643.16;;;15.08;68.99
72587;BME280;60621;49.576;11.024;2023-04-23T01:20:25;97636.75;;;15.05;68.65
72587;BME280;60621;49.576;11.024;2023-04-23T01:21:28;97635.28;;;15.01;68.66
72587;BME280;60621;49.576;11.024;2023-04-23T01:22:29;97642.13;;;15.02;69.06
72587;BME280;60621;49.576;11.024;2023-04-23T01:23:31;97636.00;;;15.05;68.97
72587;BME280;60621;49.576;11.024;2023-04-23T01:24:33;97645.06;;;15.07;69.07
72587;BME280;60621;49.576;11.024;2023-04-23T01:25:35;97642.75;;;15.09;69.34
72587;BME280;60621;49.576;11.024;2023-04-23T01:26:38;97638.97;;;15.10;69.38
72587;BME280;60621;49.576;11.024;2023-04-23T01:27:40;97640.16;;;15.06;69.66
72587;BME280;60621;49.576;11.024;2023-04-23T01:28:42;97639.41;;;15.05;70.08
72587;BME280;60621;49.576;11.024;2023-04-23T01:29:44;97640.16;;;15.06;70.36
72587;BME280;60621;49.576;11.024;2023-04-23T01:30:47;97642.16;;;14.98;70.82
72587;BME280;60621;49.576;11.024;2023-04-23T01:31:50;97651.69;;;14.96;71.23
72587;BME280;60621;49.576;11.024;2023-04-23T01:32:53;97654.69;;;14.98;71.61
72587;BME280;60621;49.576;11.024;2023-04-23T01:33:57;97652.78;;;14.98;71.47
72587;BME280;60621;49.576;11.024;2023-04-23T01:35:00;97658.50;;;14.97;71.83
72587;BME280;60621;49.576;11.024;2023-04-23T01:36:02;97656.19;;;14.99;71.74
72587;BME280;60621;49.576;11.024;2023-04-23T01:37:04;97653.53;;;14.99;71.88
72587;BME280;60621;49.576;11.024;2023-04-23T01:38:09;97658.09;;;14.98;72.10
72587;BME280;60621;49.576;11.024;2023-04-23T01:39:12;97649.72;;;15.00;72.08
72587;BME280;60621;49.576;11.024;2023-04-23T01:40:14;97656.13;;;15.02;72.05
72587;BME280;60621;49.576;11.024;2023-04-23T01:41:16;97650.06;;;15.02;72.29
72587;BME280;60621;49.576;11.024;2023-04-23T01:42:17;97651.56;;;15.03;72.15
72587;BME280;60621;49.576;11.024;2023-04-23T01:43:19;97650.81;;;15.02;71.87
72587;BME280;60621;49.576;11.024;2023-04-23T01:44:22;97642.53;;;15.00;72.16
72587;BME280;60621;49.576;11.024;2023-04-23T01:45:23;97643.66;;;14.99;72.32
72587;BME280;60621;49.576;11.024;2023-04-23T01:46:25;97644.81;;;14.98;72.52
72587;BME280;60621;49.576;11.024;2023-04-23T01:47:27;97648.97;;;14.99;72.65
72587;BME280;60621;49.576;11.024;2023-04-23T01:48:28;97645.56;;;14.99;72.60
72587;BME280;60621;49.576;11.024;2023-04-23T01:49:31;97644.81;;;14.98;72.63
72587;BME280;60621;49.576;11.024;2023-04-23T01:50:32;97643.31;;;14.97;72.67
72587;BME280;60621;49.576;11.024;2023-04-23T01:51:34;97643.72;;;14.96;72.54
72587;BME280;60621;49.576;11.024;2023-04-23T01:52:36;97652.81;;;14.95;72.59
72587;BME280;60621;49.576;11.024;2023-04-23T01:53:37;97647.59;;;14.88;72.47
72587;BME280;60621;49.576;11.024;2023-04-23T01:54:39;97646.16;;;14.79;73.23
72587;BME280;60621;49.576;11.024;2023-04-23T01:55:44;97649.19;;;14.81;73.41
72587;BME280;60621;49.576;11.024;2023-04-23T01:56:47;97650.69;;;14.82;73.21
72587;BME280;60621;49.576;11.024;2023-04-23T01:57:48;97645.75;;;14.81;73.82
72587;BME280;60621;49.576;11.024;2023-04-23T01:58:51;97652.22;;;14.80;73.58
72587;BME280;60621;49.576;11.024;2023-04-23T02:00:02;97648.16;;;14.72;74.11
72587;BME280;60621;49.576;11.024;2023-04-23T02:01:08;97639.44;;;14.71;74.20
72587;BME280;60621;49.576;11.024;2023-04-23T02:02:09;97636.88;;;14.64;74.29
72587;BME280;60621;49.576;11.024;2023-04-23T02:03:14;97642.66;;;14.55;74.73
72587;BME280;60621;49.576;11.024;2023-04-23T02:04:17;97641.47;;;14.60;74.91
72587;BME280;60621;49.576;11.024;2023-04-23T02:05:19;97645.25;;;14.63;74.77
72587;BME280;60621;49.576;11.024;2023-04-23T02:06:21;97655.44;;;14.64;74.41
72587;BME280;60621;49.576;11.024;2023-04-23T02:07:22;97656.66;;;14.56;74.10
72587;BME280;60621;49.576;11.024;2023-04-23T02:08:24;97651.72;;;14.58;74.32
72587;BME280;60621;49.576;11.024;2023-04-23T02:09:27;97659.34;;;14.52;74.33
72587;BME280;60621;49.576;11.024;2023-04-23T02:10:29;97661.66;;;14.50;74.42
72587;BME280;60621;49.576;11.024;2023-04-23T02:11:32;97654.03;;;14.52;74.61
72587;BME280;60621;49.576;11.024;2023-04-23T02:12:34;97654.41;;;14.54;74.16
72587;BME280;60621;49.576;11.024;2023-04-23T02:13:36;97661.25;;;14.52;74.69
72587;BME280;60621;49.576;11.024;2023-04-23T02:14:37;97657.50;;;14.49;74.43
72587;BME280;60621;49.576;11.024;2023-04-23T02:15:39;97660.53;;;14.48;74.57
72587;BME280;60621;49.576;11.024;2023-04-23T02:16:41;97658.66;;;14.45;74.14
72587;BME280;60621;49.576;11.024;2023-04-23T02:17:42;97666.63;;;14.48;74.02
72587;BME280;60621;49.576;11.024;2023-04-23T02:18:44;97667.72;;;14.47;73.91
72587;BME280;60621;49.576;11.024;2023-04-23T02:19:46;97671.53;;;14.46;73.33
72587;BME280;60621;49.576;11.024;2023-04-23T02:20:47;97667.38;;;14.45;73.80
72587;BME280;60621;49.576;11.024;2023-04-23T02:21:49;97675.69;;;14.47;72.96
72587;BME280;60621;49.576;11.024;2023-04-23T02:22:51;97671.50;;;14.53;72.74
72587;BME280;60621;49.576;11.024;2023-04-23T02:23:53;97673.34;;;14.56;72.37
72587;BME280;60621;49.576;11.024;2023-04-23T02:24:54;97669.16;;;14.59;72.35
72587;BME280;60621;49.576;11.024;2023-04-23T02:25:55;97661.59;;;14.57;72.43
72587;BME280;60621;49.576;11.024;2023-04-23T02:26:57;97668.78;;;14.57;72.42
72587;BME280;60621;49.576;11.024;2023-04-23T02:27:59;97663.09;;;14.58;72.80
72587;BME280;60621;49.576;11.024;2023-04-23T02:29:01;97670.66;;;14.60;73.02
72587;BME280;60621;49.576;11.024;2023-04-23T02:30:03;97665.69;;;14.62;72.48
72587;BME280;60621;49.576;11.024;2023-04-23T02:31:06;97659.25;;;14.63;71.64
72587;BME280;60621;49.576;11.024;2023-04-23T02:32:08;97664.91;;;14.65;70.72
72587;BME280;60621;49.576;11.024;2023-04-23T02:33:10;97661.50;;;14.65;70.39
72587;BME280;60621;49.576;11.024;2023-04-23T02:34:12;97661.09;;;14.66;70.74
72587;BME280;60621;49.576;11.024;2023-04-23T02:35:13;97666.03;;;14.68;71.13
72587;BME280;60621;49.576;11.024;2023-04-23T02:36:15;97662.97;;;14.69;71.14
72587;BME280;60621;49.576;11.024;2023-04-23T02:37:17;97670.94;;;14.69;71.42
72587;BME280;60621;49.576;11.024;2023-04-23T02:38:19;97673.66;;;14.62;72.10
72587;BME280;60621;49.576;11.024;2023-04-23T02:39:20;97669.19;;;14.55;73.21
72587;BME280;60621;49.576;11.024;2023-04-23T02:40:22;97662.81;;;14.49;72.36
72587;BME280;60621;49.576;11.024;2023-04-23T02:41:23;97672.28;;;14.50;72.36
72587;BME280;60621;49.576;11.024;2023-04-23T02:42:25;97670.38;;;14.51;72.21
72587;BME280;60621;49.576;11.024;2023-04-23T02:43:26;97666.19;;;14.53;72.28
72587;BME280;60621;49.576;11.024;2023-04-23T02:44:28;97670.69;;;14.56;72.12
72587;BME280;60621;49.576;11.024;2023-04-23T02:45:29;97673.31;;;14.60;72.08
72587;BME280;60621;49.576;11.024;2023-04-23T02:46:31;97669.13;;;14.63;71.88
72587;BME280;60621;49.576;11.024;2023-04-23T02:47:33;97671.72;;;14.66;71.20
72587;BME280;60621;49.576;11.024;2023-04-23T02:48:39;97672.47;;;14.67;70.70
72587;BME280;60621;49.576;11.024;2023-04-23T02:49:41;97671.72;;;14.66;71.17
72587;BME280;60621;49.576;11.024;2023-04-23T02:50:43;97674.00;;;14.68;70.28
72587;BME280;60621;49.576;11.024;2023-04-23T02:51:45;97671.34;;;14.68;69.89
72587;BME280;60621;49.576;11.024;2023-04-23T02:52:47;97682.31;;;14.70;69.94
72587;BME280;60621;49.576;11.024;2023-04-23T02:53:50;97679.25;;;14.71;69.71
72587;BME280;60621;49.576;11.024;2023-04-23T02:54:51;97680.41;;;14.70;69.93
72587;BME280;60621;49.576;11.024;2023-04-23T02:55:53;97679.66;;;14.70;70.28
72587;BME280;60621;49.576;11.024;2023-04-23T02:56:54;97681.56;;;14.69;69.74
72587;BME280;60621;49.576;11.024;2023-04-23T02:57:58;97685.38;;;14.68;69.34
72587;BME280;60621;49.576;11.024;2023-04-23T02:59:00;97684.22;;;14.69;69.25
72587;BME280;60621;49.576;11.024;2023-04-23T03:00:02;97692.19;;;14.69;68.93
72587;BME280;60621;49.576;11.024;2023-04-23T03:01:07;97689.13;;;14.71;68.93
72587;BME280;60621;49.576;11.024;2023-04-23T03:02:08;97686.47;;;14.71;68.83
72587;BME280;60621;49.576;11.024;2023-04-23T03:03:10;97689.50;;;14.73;69.00
72587;BME280;60621;49.576;11.024;2023-04-23T03:04:13;97693.31;;;14.72;68.69
72587;BME280;60621;49.576;11.024;2023-04-23T03:05:14;97690.66;;;14.72;68.72
72587;BME280;60621;49.576;11.024;2023-04-23T03:06:16;97692.53;;;14.71;68.43
72587;BME280;60621;49.576;11.024;2023-04-23T03:07:18;97699.34;;;14.72;68.17
72587;BME280;60621;49.576;11.024;2023-04-23T03:08:19;97688.38;;;14.70;68.05
72587;BME280;60621;49.576;11.024;2023-04-23T03:09:21;97688.78;;;14.69;67.86
72587;BME280;60621;49.576;11.024;2023-04-23T03:10:23;97688.03;;;14.68;68.23
72587;BME280;60621;49.576;11.024;2023-04-23T03:11:24;97687.66;;;14.66;68.16
72587;BME280;60621;49.576;11.024;2023-04-23T03:12:26;97691.47;;;14.65;68.62
72587;BME280;60621;49.576;11.024;2023-04-23T03:13:27;97692.56;;;14.68;68.42
72587;BME280;60621;49.576;11.024;2023-04-23T03:14:29;97697.09;;;14.71;67.82
72587;BME280;60621;49.576;11.024;2023-04-23T03:15:31;97693.31;;;14.72;67.71
72587;BME280;60621;49.576;11.024;2023-04-23T03:16:32;97695.94;;;14.72;67.54
72587;BME280;60621;49.576;11.024;2023-04-23T03:17:34;97702.38;;;14.71;67.41
72587;BME280;60621;49.576;11.024;2023-04-23T03:18:36;97690.66;;;14.72;67.29
72587;BME280;60621;49.576;11.024;2023-04-23T03:19:37;97693.31;;;14.72;66.90
72587;BME280;60621;49.576;11.024;2023-04-23T03:20:39;97692.63;;;14.64;67.14
72587;BME280;60621;49.576;11.024;2023-04-23T03:21:41;97692.63;;;14.60;67.67
72587;BME280;60621;49.576;11.024;2023-04-23T03:22:42;97700.56;;;14.64;67.68
72587;BME280;60621;49.576;11.024;2023-04-23T03:23:44;97699.41;;;14.65;66.80
72587;BME280;60621;49.576;11.024;2023-04-23T03:24:45;97696.34;;;14.67;66.75
72587;BME280;60621;49.576;11.024;2023-04-23T03:25:47;97700.13;;;14.69;66.58
72587;BME280;60621;49.576;11.024;2023-04-23T03:26:48;97696.34;;;14.70;66.31
72587;BME280;60621;49.576;11.024;2023-04-23T03:27:51;97691.78;;;14.71;66.42
72587;BME280;60621;49.576;11.024;2023-04-23T03:28:52;97696.69;;;14.72;66.33
72587;BME280;60621;49.576;11.024;2023-04-23T03:29:54;97696.31;;;14.74;66.25
72587;BME280;60621;49.576;11.024;2023-04-23T03:30:55;97694.00;;;14.76;66.29
72587;BME280;60621;49.576;11.024;2023-04-23T03:31:57;97692.47;;;14.78;66.23
72587;BME280;60621;49.576;11.024;2023-04-23T03:32:59;97701.94;;;14.79;65.89
72587;BME280;60621;49.576;11.024;2023-04-23T03:34:02;97705.69;;;14.82;65.90
72587;BME280;60621;49.576;11.024;2023-04-23T03:35:04;97707.22;;;14.79;66.05
72587;BME280;60621;49.576;11.024;2023-04-23T03:36:06;97705.31;;;14.80;66.07
72587;BME280;60621;49.576;11.024;2023-04-23T03:37:08;97707.59;;;14.81;65.95
72587;BME280;60621;49.576;11.024;2023-04-23T03:38:09;97713.66;;;14.82;65.52
72587;BME280;60621;49.576;11.024;2023-04-23T03:39:11;97709.47;;;14.81;65.84
72587;BME280;60621;49.576;11.024;2023-04-23T03:40:13;97707.94;;;14.83;65.69
72587;BME280;60621;49.576;11.024;2023-04-23T03:41:15;97712.84;;;14.85;65.60
72587;BME280;60621;49.576;11.024;2023-04-23T03:42:16;97721.56;;;14.85;65.78
72587;BME280;60621;49.576;11.024;2023-04-23T03:43:18;97724.22;;;14.85;65.50
72587;BME280;60621;49.576;11.024;2023-04-23T03:44:21;97719.69;;;14.86;65.93
72587;BME280;60621;49.576;11.024;2023-04-23T03:45:24;97725.03;;;14.82;65.89
72587;BME280;60621;49.576;11.024;2023-04-23T03:46:25;97719.31;;;14.84;65.86
72587;BME280;60621;49.576;11.024;2023-04-23T03:47:27;97715.97;;;14.76;65.74
72587;BME280;60621;49.576;11.024;2023-04-23T03:48:29;97718.28;;;14.74;65.86
72587;BME280;60621;49.576;11.024;2023-04-23T03:49:30;97723.59;;;14.74;65.93
72587;BME280;60621;49.576;11.024;2023-04-23T03:50:32;97720.97;;;14.71;65.64
72587;BME280;60621;49.576;11.024;2023-04-23T03:51:36;97720.63;;;14.69;65.77
72587;BME280;60621;49.576;11.024;2023-04-23T03:52:37;97718.38;;;14.67;65.93
72587;BME280;60621;49.576;11.024;2023-04-23T03:53:39;97723.31;;;14.65;65.81
72587;BME280;60621;49.576;11.024;2023-04-23T03:54:40;97718.75;;;14.66;65.99
72587;BME280;60621;49.576;11.024;2023-04-23T03:55:42;97723.75;;;14.60;65.96
72587;BME280;60621;49.576;11.024;2023-04-23T03:56:44;97721.44;;;14.62;66.26
72587;BME280;60621;49.576;11.024;2023-04-23T03:57:46;97719.94;;;14.61;66.19
72587;BME280;60621;49.576;11.024;2023-04-23T03:58:47;97719.94;;;14.61;66.49
72587;BME280;60621;49.576;11.024;2023-04-23T03:59:49;97711.59;;;14.63;66.39
72587;BME280;60621;49.576;11.024;2023-04-23T04:00:51;97723.72;;;14.64;66.10
72587;BME280;60621;49.576;11.024;2023-04-23T04:01:52;97716.94;;;14.59;66.02
72587;BME280;60621;49.576;11.024;2023-04-23T04:02:54;97722.25;;;14.59;66.16
72587;BME280;60621;49.576;11.024;2023-04-23T04:03:56;97711.25;;;14.57;66.30
72587;BME280;60621;49.576;11.024;2023-04-23T04:04:58;97718.47;;;14.56;66.49
72587;BME280;60621;49.576;11.024;2023-04-23T04:06:00;97717.72;;;14.56;66.54
72587;BME280;60621;49.576;11.024;2023-04-23T04:07:01;97707.09;;;14.56;66.49
72587;BME280;60621;49.576;11.024;2023-04-23T04:08:03;97716.63;;;14.53;66.44
72587;BME280;60621;49.576;11.024;2023-04-23T04:09:05;97721.16;;;14.53;66.41
72587;BME280;60621;49.576;11.024;2023-04-23T04:10:08;97711.34;;;14.50;66.66
72587;BME280;60621;49.576;11.024;2023-04-23T04:11:10;97724.59;;;14.50;66.51
72587;BME280;60621;49.576;11.024;2023-04-23T04:12:11;97722.34;;;14.48;66.94
72587;BME280;60621;49.576;11.024;2023-04-23T04:13:13;97723.44;;;14.47;66.75
72587;BME280;60621;49.576;11.024;2023-04-23T04:14:16;97718.13;;;14.47;67.10
72587;BME280;60621;49.576;11.024;2023-04-23T04:15:17;97726.50;;;14.46;67.16
72587;BME280;60621;49.576;11.024;2023-04-23T04:16:20;97725.34;;;14.47;67.28
72587;BME280;60621;49.576;11.024;2023-04-23T04:17:22;97724.22;;;14.48;67.13
72587;BME280;60621;49.576;11.024;2023-04-23T04:18:24;97722.34;;;14.45;67.44
72587;BME280;60621;49.576;11.024;2023-04-23T04:19:25;97722.75;;;14.43;67.73
72587;BME280;60621;49.576;11.024;2023-04-23T04:20:27;97721.97;;;14.43;67.33
72587;BME280;60621;49.576;11.024;2023-04-23T04:21:31;97718.94;;;14.44;67.56
72587;BME280;60621;49.576;11.024;2023-04-23T04:22:34;97725.00;;;14.45;67.47
72587;BME280;60621;49.576;11.024;2023-04-23T04:23:35;97722.34;;;14.45;67.56
72587;BME280;60621;49.576;11.024;2023-04-23T04:24:37;97723.09;;;14.45;67.72
72587;BME280;60621;49.576;11.024;2023-04-23T04:25:38;97724.59;;;14.46;67.84
72587;BME280;60621;49.576;11.024;2023-04-23T04:26:40;97722.69;;;14.47;67.51
72587;BME280;60621;49.576;11.024;2023-04-23T04:27:42;97725.81;;;14.38;67.35
72587;BME280;60621;49.576;11.024;2023-04-23T04:28:44;97722.06;;;14.32;67.91
72587;BME280;60621;49.576;11.024;2023-04-23T04:29:46;97734.22;;;14.29;68.20
72587;BME280;60621;49.576;11.024;2023-04-23T04:30:48;97731.94;;;14.31;67.75
72587;BME280;60621;49.576;11.024;2023-04-23T04:31:50;97735.34;;;14.32;67.85
72587;BME280;60621;49.576;11.024;2023-04-23T04:32:52;97725.09;;;14.34;67.74
72587;BME280;60621;49.576;11.024;2023-04-23T04:33:54;97739.13;;;14.31;68.01
72587;BME280;60621;49.576;11.024;2023-04-23T04:34:56;97738.38;;;14.34;67.99
72587;BME280;60621;49.576;11.024;2023-04-23T04:35:58;97733.81;;;14.34;68.02
72587;BME280;60621;49.576;11.024;2023-04-23T04:37:04;97738.38;;;14.34;68.00
72587;BME280;60621;49.576;11.024;2023-04-23T04:38:05;97742.91;;;14.33;68.38
72587;BME280;60621;49.576;11.024;2023-04-23T04:39:07;97744.06;;;14.29;68.39
72587;BME280;60621;49.576;11.024;2023-04-23T04:40:09;97741.47;;;14.25;68.70
72587;BME280;60621;49.576;11.024;2023-04-23T04:41:12;97744.06;;;14.29;68.65
72587;BME280;60621;49.576;11.024;2023-04-23T04:42:13;97741.47;;;14.25;68.88
72587;BME280;60621;49.576;11.024;2023-04-23T04:43:15;97744.13;;;14.22;68.89
72587;BME280;60621;49.576;11.024;2023-04-23T04:44:17;97743.81;;;14.13;69.27
72587;BME280;60621;49.576;11.024;2023-04-23T04:45:19;97742.75;;;14.06;69.39
72587;BME280;60621;49.576;11.024;2023-04-23T04:46:20;97746.88;;;14.11;69.44
72587;BME280;60621;49.576;11.024;2023-04-23T04:47:22;97740.44;;;14.12;69.23
72587;BME280;60621;49.576;11.024;2023-04-23T04:48:24;97745.31;;;14.17;69.27
72587;BME280;60621;49.576;11.024;2023-04-23T04:49:25;97741.88;;;14.20;69.01
72587;BME280;60621;49.576;11.024;2023-04-23T04:50:27;97741.09;;;14.23;68.87
72587;BME280;60621;49.576;11.024;2023-04-23T04:51:28;97738.81;;;14.25;68.36
72587;BME280;60621;49.576;11.024;2023-04-23T04:52:30;97743.38;;;14.25;68.45
72587;BME280;60621;49.576;11.024;2023-04-23T04:53:32;97743.78;;;14.20;68.89
72587;BME280;60621;49.576;11.024;2023-04-23T04:54:33;97743.00;;;14.19;69.17
72587;BME280;60621;49.576;11.024;2023-04-23T04:55:35;97735.84;;;14.20;68.86
72587;BME280;60621;49.576;11.024;2023-04-23T04:56:36;97743.38;;;14.21;68.92
72587;BME280;60621;49.576;11.024;2023-04-23T04:57:38;97745.28;;;14.21;68.90
72587;BME280;60621;49.576;11.024;2023-04-23T04:58:39;97743.38;;;14.25;69.06
72587;BME280;60621;49.576;11.024;2023-04-23T04:59:40;97746.41;;;14.23;68.87
72587;BME280;60621;49.576;11.024;2023-04-23T05:00:42;97735.41;;;14.25;68.91
72587;BME280;60621;49.576;11.024;2023-04-23T05:01:45;97747.53;;;14.22;69.28
72587;BME280;60621;49.576;11.024;2023-04-23T05:02:47;97745.63;;;14.23;68.94
72587;BME280;60621;49.576;11.024;2023-04-23T05:03:49;97744.13;;;14.22;69.15
72587;BME280;60621;49.576;11.024;2023-04-23T05:04:51;97749.03;;;14.23;68.83
72587;BME280;60621;49.576;11.024;2023-04-23T05:05:53;97752.44;;;14.24;68.65
72587;BME280;60621;49.576;11.024;2023-04-23T05:06:59;97741.09;;;14.23;68.82
72587;BME280;60621;49.576;11.024;2023-04-23T05:08:00;97747.91;;;14.24;69.14
72587;BME280;60621;49.576;11.024;2023-04-23T05:09:02;97752.06;;;14.25;69.01
72587;BME280;60621;49.576;11.024;2023-04-23T05:10:05;97755.84;;;14.28;68.76
72587;BME280;60621;49.576;11.024;2023-04-23T05:11:07;97752.44;;;14.27;68.84
72587;BME280;60621;49.576;11.024;2023-04-23T05:12:08;97758.53;;;14.24;69.07
72587;BME280;60621;49.576;11.024;2023-04-23T05:13:10;97759.28;;;14.25;69.00
72587;BME280;60621;49.576;11.024;2023-04-23T05:14:12;97764.59;;;14.25;68.78
72587;BME280;60621;49.576;11.024;2023-04-23T05:15:13;97764.19;;;14.26;68.76
72587;BME280;60621;49.576;11.024;2023-04-23T05:16:15;97765.34;;;14.25;68.91
72587;BME280;60621;49.576;11.024;2023-04-23T05:17:16;97777.44;;;14.26;68.85
72587;BME280;60621;49.576;11.024;2023-04-23T05:18:18;97773.66;;;14.24;68.94
72587;BME280;60621;49.576;11.024;2023-04-23T05:19:20;97771.41;;;14.22;69.14
72587;BME280;60621;49.576;11.024;2023-04-23T05:20:22;97779.75;;;14.24;69.02
72587;BME280;60621;49.576;11.024;2023-04-23T05:21:24;97776.31;;;14.24;68.94
72587;BME280;60621;49.576;11.024;2023-04-23T05:22:28;97772.53;;;14.25;69.06
72587;BME280;60621;49.576;11.024;2023-04-23T05:23:29;97771.78;;;14.24;69.15
72587;BME280;60621;49.576;11.024;2023-04-23T05:24:31;97767.25;;;14.21;69.16